Time;durP1;ratioP1;P1;durP2;ratioP2;P2;SDS_P1;SDS_P2;PMS_P1;PMS_P2;Temp;Humidity;BMP_temperature;BMP_pressure;BME280_temperature;BME280_humidity;BME280_pressure;Samples;Min_cycle;Max_cycle;Signal;HPM_P1;HPM_P2
2021/04/12 00:03:23;;;;;;;5.00;3.03;;;;;;;18.24;41.82;101039.78;30964298;28;20026;-61
2021/04/12 00:18:54;;;;;;;6.72;3.08;;;;;;;18.16;41.74;101035.97;30950246;28;20046;-61
2021/04/12 00:34:10;;;;;;;4.05;2.70;;;;;;;18.10;41.52;101073.25;30928955;28;20024;-60
2021/04/12 00:49:40;;;;;;;4.55;2.70;;;;;;;18.06;41.36;101074.44;30928942;28;20034;-61
2021/04/12 01:04:59;;;;;;;4.35;2.40;;;;;;;18.02;41.50;101072.16;30947319;28;20072;-61
2021/04/12 01:20:27;;;;;;;4.25;2.33;;;;;;;17.98;41.07;101113.63;30961285;28;20050;-61
2021/04/12 01:35:56;;;;;;;3.28;2.30;;;;;;;17.96;40.89;101152.38;30916648;28;20027;-61
2021/04/12 01:51:08;;;;;;;3.20;2.10;;;;;;;17.93;40.99;101173.63;30939780;28;20425;-61
2021/04/12 02:06:42;;;;;;;3.40;2.00;;;;;;;17.89;40.71;101175.66;30920398;28;20477;-61
2021/04/12 02:22:16;;;;;;;3.90;2.28;;;;;;;17.88;40.74;101184.47;30951490;28;20488;-61
2021/04/12 02:37:43;;;;;;;3.60;1.90;;;;;;;17.85;40.66;101184.72;30966239;28;20124;-61
2021/04/12 02:53:05;;;;;;;3.67;2.00;;;;;;;17.83;40.54;101193.66;30991258;28;20037;-61
2021/04/12 03:08:24;;;;;;;4.07;1.90;;;;;;;17.79;41.07;101198.25;30973716;28;20026;-61
2021/04/12 03:23:50;;;;;;;3.08;1.70;;;;;;;17.78;40.63;101181.66;30951187;28;20118;-61
2021/04/12 03:39:07;;;;;;;2.60;1.60;;;;;;;17.77;40.52;101210.69;30960860;28;20043;-61
2021/04/12 03:54:29;;;;;;;2.85;1.50;;;;;;;17.74;40.86;101222.25;30955396;28;20034;-61
2021/04/12 04:10:07;;;;;;;3.22;1.88;;;;;;;17.71;40.53;101243.53;30951962;28;20026;-60
2021/04/12 04:25:27;;;;;;;2.90;1.58;;;;;;;17.69;40.39;101276.97;30949763;28;20054;-59
2021/04/12 04:40:33;;;;;;;2.90;1.42;;;;;;;17.68;40.71;101303.34;30923092;28;20042;-60
2021/04/12 04:56:14;;;;;;;2.50;1.30;;;;;;;17.69;40.77;101336.59;30933302;28;20035;-59
2021/04/12 05:27:01;;;;;;;2.65;1.13;;;;;;;17.67;40.25;101383.19;31705328;27;20396;-59
2021/04/12 05:42:30;;;;;;;2.42;1.13;;;;;;;17.68;40.02;101411.97;31692234;28;20048;-58
2021/04/12 05:58:05;;;;;;;2.25;1.00;;;;;;;17.74;39.77;101443.13;31655827;28;20390;-57
2021/04/12 06:13:27;;;;;;;3.85;1.58;;;;;;;17.26;35.34;101473.56;31684383;28;20039;-54
2021/04/12 06:28:50;;;;;;;5.03;1.52;;;;;;;15.50;35.35;101494.88;31623330;28;20478;-58
2021/04/12 06:44:28;;;;;;;7.30;1.80;;;;;;;14.82;39.96;101515.34;31598098;28;20044;-58
2021/04/12 06:59:38;;;;;;;4.67;1.50;;;;;;;16.10;40.32;101514.97;31590121;28;20024;-64
2021/04/12 07:15:18;;;;;;;3.75;1.00;;;;;;;16.83;38.96;101521.00;31563324;28;20723;-63
2021/04/12 07:30:40;;;;;;;5.53;1.90;;;;;;;17.27;36.76;101549.66;31517195;28;20024;-60
2021/04/12 07:46:25;;;;;;;5.88;1.67;;;;;;;17.89;38.02;101567.50;31493784;28;20032;-58
2021/04/12 08:01:50;;;;;;;8.93;3.92;;;;;;;18.31;36.93;101568.13;31462873;28;20040;-62
2021/04/12 08:17:29;;;;;;;6.72;2.28;;;;;;;18.77;36.83;101598.31;31486193;28;20131;-62
2021/04/12 08:32:52;;;;;;;6.68;2.15;;;;;;;19.09;36.81;101630.28;31471680;28;20135;-62
2021/04/12 08:48:06;;;;;;;6.22;1.80;;;;;;;19.83;36.22;101638.09;31461864;28;20025;-58
2021/04/12 09:03:14;;;;;;;4.95;1.90;;;;;;;20.51;35.42;101654.94;31487406;28;20756;-60
2021/04/12 09:18:24;;;;;;;4.35;1.67;;;;;;;21.26;33.97;101642.91;31450103;28;20052;-60
2021/04/12 09:33:48;;;;;;;18.00;12.40;;;;;;;20.60;34.21;101648.13;31537393;28;20032;-60
2021/04/12 09:49:27;;;;;;;5.78;3.70;;;;;;;20.83;35.15;101665.66;31564434;28;20102;-59
2021/04/12 10:04:43;;;;;;;6.00;3.42;;;;;;;21.24;34.42;101671.28;31573073;28;20043;-60
2021/04/12 10:19:52;;;;;;;7.77;3.27;;;;;;;20.74;35.87;101684.88;31590381;28;20048;-60
2021/04/12 10:35:00;;;;;;;5.75;3.00;;;;;;;20.50;36.39;101701.63;31573003;28;20040;-60
2021/04/12 10:50:14;;;;;;;4.97;3.22;;;;;;;20.23;35.01;101724.84;31574247;28;20039;-58
2021/04/12 11:05:19;;;;;;;5.47;3.13;;;;;;;20.19;34.77;101726.88;31584045;28;20395;-63
2021/04/12 11:21:07;;;;;;;4.88;2.58;;;;;;;20.07;35.70;101735.72;31555648;28;20037;-63
2021/04/12 11:36:19;;;;;;;5.47;2.60;;;;;;;20.04;35.38;101726.22;31565005;28;20093;-62
2021/04/12 11:51:33;;;;;;;5.88;2.63;;;;;;;20.16;34.97;101752.66;31619184;28;20442;-63
2021/04/12 12:06:55;;;;;;;6.72;2.35;;;;;;;20.34;35.45;101747.78;31570232;28;20559;-60
2021/04/12 12:22:12;;;;;;;3.65;1.80;;;;;;;20.89;34.86;101762.97;31543821;28;20045;-58
2021/04/12 12:37:44;;;;;;;4.47;1.83;;;;;;;21.06;35.10;101771.38;31576760;28;20036;-58
2021/04/12 12:52:48;;;;;;;5.13;2.00;;;;;;;20.78;35.54;101785.91;31564133;28;20105;-59
2021/04/12 13:07:50;;;;;;;3.92;2.03;;;;;;;20.50;34.39;101799.34;31535985;28;20032;-61
2021/04/12 13:23:01;;;;;;;6.95;2.40;;;;;;;20.55;35.26;101777.00;31565809;28;20044;-62
2021/04/12 13:38:15;;;;;;;3.67;1.90;;;;;;;20.73;35.13;101773.03;31576145;28;20024;-61
2021/04/12 13:53:35;;;;;;;4.05;1.80;;;;;;;20.85;35.02;101769.44;31604442;28;20551;-62
2021/04/12 14:08:48;;;;;;;4.93;1.98;;;;;;;20.77;35.65;101795.59;31582540;28;20393;-62
2021/04/12 14:23:49;;;;;;;5.82;2.72;;;;;;;20.69;34.94;101785.63;31592452;28;20048;-58
2021/04/12 14:39:02;;;;;;;4.28;2.30;;;;;;;20.68;35.31;101802.44;31584181;28;20131;-59
2021/04/12 14:54:09;;;;;;;5.03;2.60;;;;;;;20.66;35.57;101807.00;31587189;28;20078;-60
2021/04/12 15:09:16;;;;;;;3.63;2.30;;;;;;;20.58;36.03;101812.00;31573345;28;20024;-57
2021/04/12 15:24:35;;;;;;;4.05;2.42;;;;;;;20.53;36.26;101821.22;31555072;28;20576;-60
2021/04/12 15:39:36;;;;;;;4.40;2.40;;;;;;;20.57;36.35;101839.41;31594572;28;20453;-61
2021/04/12 15:54:36;;;;;;;3.83;2.80;;;;;;;20.44;36.80;101847.34;31599246;28;20590;-59
2021/04/12 16:09:38;;;;;;;5.87;2.00;;;;;;;20.04;32.11;101850.28;31578314;28;20032;-60
2021/04/12 16:24:53;;;;;;;5.00;1.50;;;;;;;18.97;24.71;101865.66;31585172;28;20293;-58
2021/04/12 16:39:54;;;;;;;6.10;2.25;;;;;;;19.21;32.18;101889.47;31574021;28;20024;-62
2021/04/12 16:55:17;;;;;;;6.85;2.45;;;;;;;19.35;34.30;101899.91;31589222;28;20032;-60
2021/04/12 17:10:38;;;;;;;8.90;4.00;;;;;;;19.35;34.39;101901.72;31575138;28;20028;-60
2021/04/12 17:25:55;;;;;;;3.47;1.20;;;;;;;17.44;26.04;101903.34;31476262;28;20106;-57
2021/04/12 17:41:09;;;;;;;;;;;;;;;16.85;29.28;101905.09;31465427;28;20024;-60
2021/04/12 17:56:19;;;;;;;4.25;1.38;;;;;;;18.22;30.57;101908.22;31465609;28;19923;-61
2021/04/12 18:11:33;;;;;;;5.25;1.80;;;;;;;19.07;31.14;101926.47;31472701;28;20031;-61
2021/04/12 18:26:35;;;;;;;4.57;1.73;;;;;;;19.56;32.42;101952.13;31464469;28;20052;-61
2021/04/12 18:41:43;;;;;;;4.78;2.80;;;;;;;19.73;32.48;101980.88;31455196;28;20063;-62
2021/04/12 18:56:52;;;;;;;4.50;2.42;;;;;;;19.78;32.98;101997.22;31479442;28;20033;-60
2021/04/12 19:12:00;;;;;;;41.35;30.33;;;;;;;19.50;32.42;102029.88;31455688;28;20029;-58
2021/04/12 19:27:07;;;;;;;9.45;6.88;;;;;;;19.38;33.35;102028.91;31443698;28;20044;-62
2021/04/12 19:42:23;;;;;;;11.57;7.90;;;;;;;19.36;32.95;102033.44;31460744;28;20375;-62
2021/04/12 19:57:34;;;;;;;14.52;8.35;;;;;;;19.49;34.14;102025.53;31436223;28;20033;-60
2021/04/12 20:13:15;;;;;;;18.67;9.30;;;;;;;19.65;36.40;102033.25;31497945;28;20044;-61
2021/04/12 20:28:34;;;;;;;16.75;9.02;;;;;;;19.66;37.14;102038.44;31387770;28;20037;-60
2021/04/12 20:43:38;;;;;;;16.92;9.05;;;;;;;19.63;37.63;102037.78;31445620;28;20032;-60
2021/04/12 20:58:59;;;;;;;16.63;9.30;;;;;;;19.56;37.69;102047.06;31461220;28;20124;-58
2021/04/12 21:14:24;;;;;;;12.63;8.27;;;;;;;19.17;38.07;102060.16;31443276;28;20040;-59
2021/04/12 21:29:35;;;;;;;13.20;8.20;;;;;;;19.18;36.81;102067.13;31429220;28;20066;-62
2021/04/12 21:44:49;;;;;;;14.40;8.82;;;;;;;19.07;37.44;102072.25;31408574;28;20029;-62
2021/04/12 21:59:53;;;;;;;14.75;8.80;;;;;;;18.96;37.62;102066.81;31447973;28;20024;-62
2021/04/12 22:15:03;;;;;;;13.43;8.75;;;;;;;18.89;38.20;102076.91;31474975;28;20110;-62
2021/04/12 22:30:16;;;;;;;13.25;8.50;;;;;;;18.83;38.15;102085.22;31394937;28;20024;-63
2021/04/12 22:45:32;;;;;;;12.02;8.23;;;;;;;18.77;38.46;102091.69;31427154;28;20028;-62
2021/04/12 23:00:44;;;;;;;13.00;9.40;;;;;;;18.69;38.60;102106.25;31500728;28;20032;-62
2021/04/12 23:15:45;;;;;;;12.30;8.63;;;;;;;18.65;38.91;102110.03;31497842;28;20044;-63
2021/04/12 23:30:47;;;;;;;12.40;7.70;;;;;;;18.59;39.23;102122.63;31497733;28;20021;-60
2021/04/12 23:45:47;;;;;;;12.25;8.77;;;;;;;18.53;39.69;102122.16;31439481;28;20063;-62
